Nichiryu Maru — JG5632 — position and weather

sailwx.info

Track history (hours):
 
Tides and Currents Weather Stations Pressure Air Temp Water Temp Dewpoint Dewpoint Depression Visibility Wind Speed Wind Dir Waves Ship Positions

Nichiryu Maru

Last reported at 2016-Jul-01 08:32 UTC. Time now 2016-Jul-01 19:08 UTC.
Position N 34°36' E 134°54'.

Length 158 m; draft 6.5 m.

Type: Cargo ship. MMSI: 43100939.

Date/timePositionNaut miles runAvg speedWind from/ knotsBaromVisibWave heightAir tempDewpointWater temp
2016-Jul-01 08:32N 34°36' E 134°54'1818.4
2016-Jul-01 07:34N 34°38' E 135°16'3 3.2
2016-Jul-01 06:33N 34°41' E 135°13'0 0.0
2016-Jul-01 05:33N 34°41' E 135°13'0 0.0
2016-Jul-01 04:27N 34°41' E 135°13'0 0.0
2016-Jul-01 03:33N 34°41' E 135°13'8 8.3
2016-Jul-01 02:33N 34°33' E 135°11'1817.9
2016-Jul-01 01:32N 34°17' E 134°59'1717.5
2016-Jul-01 00:33N 34°00' E 135°00'16916.3
2016-Jun-30 14:14N 34°26' E 138°22'5618.9
2016-Jun-30 11:16N 34°53' E 139°22'1419.7
2016-Jun-30 10:33N 35°01' E 139°35'1616.0
2016-Jun-30 09:34N 35°14' E 139°46'7 7.2
2016-Jun-30 08:31N 35°19' E 139°39'0 0.0
2016-Jun-30 07:28N 35°19' E 139°39'0 0.0
2016-Jun-30 06:28N 35°19' E 139°39'0 0.0
2016-Jun-30 05:31N 35°19' E 139°39'0 0.0
2016-Jun-30 04:31N 35°19' E 139°39'0 0.0
2016-Jun-30 03:33N 35°19' E 139°39'8 8.3
2016-Jun-30 02:33N 35°14' E 139°47'  
2016-Jun-27 16:05N 34°24' E 138°15'1118.5
2016-Jun-27 15:29N 34°27' E 138°28'4017.6
2016-Jun-27 13:12N 34°44' E 139°13'1117.7
2016-Jun-27 12:33N 34°51' E 139°23'1817.7
2016-Jun-27 11:32N 35°04' E 139°39'1414.0
2016-Jun-27 10:33N 35°16' E 139°46'6 5.7
2016-Jun-27 09:31N 35°19' E 139°39'0 0.0
2016-Jun-27 08:31N 35°19' E 139°39'0 0.0
2016-Jun-27 07:31N 35°19' E 139°39'0 0.0
2016-Jun-27 06:28N 35°19' E 139°39'0 0.0
2016-Jun-27 05:25N 35°19' E 139°39'0 0.0
2016-Jun-27 04:28N 35°19' E 139°39'0 0.0
2016-Jun-27 03:28N 35°19' E 139°39'0 0.0
2016-Jun-27 02:31N 35°19' E 139°39'0 0.0
2016-Jun-27 01:31N 35°19' E 139°39'0 0.0
2016-Jun-27 00:31N 35°19' E 139°39'0 0.0
2016-Jun-26 23:33N 35°19' E 139°39'2 2.5
2016-Jun-26 22:33N 35°19' E 139°42'1212.4
2016-Jun-26 21:34N 35°07' E 139°45'6915.9
2016-Jun-26 17:14N 34°31' E 138°34'  
2016-Jun-23 14:33N 34°28' E 138°31'5016.4
2016-Jun-23 11:32N 34°52' E 139°23'1817.9
2016-Jun-23 10:32N 35°04' E 139°40'1414.0
2016-Jun-23 09:34N 35°17' E 139°45'5 5.1
2016-Jun-23 08:33N 35°19' E 139°39'0 0.0
2016-Jun-23 07:27N 35°19' E 139°39'0 0.0
2016-Jun-23 05:33N 35°19' E 139°39'0 0.0
2016-Jun-23 04:30N 35°19' E 139°39'0 0.1
2016-Jun-23 03:34N 35°19' E 139°39'8 8.5
2016-Jun-23 02:34N 35°13' E 139°47'1817.5
2016-Jun-23 01:33N 34°58' E 139°38'  
Track history (hours):
 
Tides and Currents Weather Stations Pressure Air Temp Water Temp Dewpoint Dewpoint Depression Visibility Wind Speed Wind Dir Waves Ship Positions

Nichiryu Maru

Last reported at 2016-Jul-01 08:32 UTC. Time now 2016-Jul-01 19:08 UTC.
Position N 34°36' E 134°54'.

Length 158 m; draft 6.5 m.

Type: Cargo ship. MMSI: 43100939.

Date/timePositionNaut miles runAvg speedWind from/ knotsBaromVisibWave heightAir tempDewpointWater temp
2016-Jul-01 08:32N 34°36' E 134°54'1818.4
2016-Jul-01 07:34N 34°38' E 135°16'3 3.2
2016-Jul-01 06:33N 34°41' E 135°13'0 0.0
2016-Jul-01 05:33N 34°41' E 135°13'0 0.0
2016-Jul-01 04:27N 34°41' E 135°13'0 0.0
2016-Jul-01 03:33N 34°41' E 135°13'8 8.3
2016-Jul-01 02:33N 34°33' E 135°11'1817.9
2016-Jul-01 01:32N 34°17' E 134°59'1717.5
2016-Jul-01 00:33N 34°00' E 135°00'16916.3
2016-Jun-30 14:14N 34°26' E 138°22'5618.9
2016-Jun-30 11:16N 34°53' E 139°22'1419.7
2016-Jun-30 10:33N 35°01' E 139°35'1616.0
2016-Jun-30 09:34N 35°14' E 139°46'7 7.2
2016-Jun-30 08:31N 35°19' E 139°39'0 0.0
2016-Jun-30 07:28N 35°19' E 139°39'0 0.0
2016-Jun-30 06:28N 35°19' E 139°39'0 0.0
2016-Jun-30 05:31N 35°19' E 139°39'0 0.0
2016-Jun-30 04:31N 35°19' E 139°39'0 0.0
2016-Jun-30 03:33N 35°19' E 139°39'8 8.3
2016-Jun-30 02:33N 35°14' E 139°47'  
2016-Jun-27 16:05N 34°24' E 138°15'1118.5
2016-Jun-27 15:29N 34°27' E 138°28'4017.6
2016-Jun-27 13:12N 34°44' E 139°13'1117.7
2016-Jun-27 12:33N 34°51' E 139°23'1817.7
2016-Jun-27 11:32N 35°04' E 139°39'1414.0
2016-Jun-27 10:33N 35°16' E 139°46'6 5.7
2016-Jun-27 09:31N 35°19' E 139°39'0 0.0
2016-Jun-27 08:31N 35°19' E 139°39'0 0.0
2016-Jun-27 07:31N 35°19' E 139°39'0 0.0
2016-Jun-27 06:28N 35°19' E 139°39'0 0.0
2016-Jun-27 05:25N 35°19' E 139°39'0 0.0
2016-Jun-27 04:28N 35°19' E 139°39'0 0.0
2016-Jun-27 03:28N 35°19' E 139°39'0 0.0
2016-Jun-27 02:31N 35°19' E 139°39'0 0.0
2016-Jun-27 01:31N 35°19' E 139°39'0 0.0
2016-Jun-27 00:31N 35°19' E 139°39'0 0.0
2016-Jun-26 23:33N 35°19' E 139°39'2 2.5
2016-Jun-26 22:33N 35°19' E 139°42'1212.4
2016-Jun-26 21:34N 35°07' E 139°45'6915.9
2016-Jun-26 17:14N 34°31' E 138°34'  
2016-Jun-23 14:33N 34°28' E 138°31'5016.4
2016-Jun-23 11:32N 34°52' E 139°23'1817.9
2016-Jun-23 10:32N 35°04' E 139°40'1414.0
2016-Jun-23 09:34N 35°17' E 139°45'5 5.1
2016-Jun-23 08:33N 35°19' E 139°39'0 0.0
2016-Jun-23 07:27N 35°19' E 139°39'0 0.0
2016-Jun-23 05:33N 35°19' E 139°39'0 0.0
2016-Jun-23 04:30N 35°19' E 139°39'0 0.1
2016-Jun-23 03:34N 35°19' E 139°39'8 8.5
2016-Jun-23 02:34N 35°13' E 139°47'1817.5
2016-Jun-23 01:33N 34°58' E 139°38'  

Dump ship's entire track history